sensor_id;sensor_type;location;lat;lon;timestamp;P1;durP1;ratioP1;P2;durP2;ratioP2
24685;SDS011;12804;51.176;4.452;2023-04-01T00:00:03;7.30;;;2.15;;
24685;SDS011;12804;51.176;4.452;2023-04-01T00:02:37;9.02;;;2.88;;
24685;SDS011;12804;51.176;4.452;2023-04-01T00:05:03;9.00;;;2.80;;
24685;SDS011;12804;51.176;4.452;2023-04-01T00:07:30;6.00;;;2.40;;
24685;SDS011;12804;51.176;4.452;2023-04-01T00:09:56;7.35;;;3.05;;
24685;SDS011;12804;51.176;4.452;2023-04-01T00:12:22;9.65;;;3.20;;
24685;SDS011;12804;51.176;4.452;2023-04-01T00:14:50;9.40;;;3.08;;
24685;SDS011;12804;51.176;4.452;2023-04-01T00:17:16;6.93;;;3.10;;
24685;SDS011;12804;51.176;4.452;2023-04-01T00:19:42;4.65;;;3.20;;
24685;SDS011;12804;51.176;4.452;2023-04-01T00:22:08;6.22;;;3.47;;
24685;SDS011;12804;51.176;4.452;2023-04-01T00:24:37;8.25;;;4.18;;
24685;SDS011;12804;51.176;4.452;2023-04-01T00:27:03;13.38;;;4.22;;
24685;SDS011;12804;51.176;4.452;2023-04-01T00:29:30;7.97;;;4.40;;
24685;SDS011;12804;51.176;4.452;2023-04-01T00:31:57;9.02;;;4.55;;
24685;SDS011;12804;51.176;4.452;2023-04-01T00:34:23;8.57;;;4.55;;
24685;SDS011;12804;51.176;4.452;2023-04-01T00:36:50;13.50;;;5.50;;
24685;SDS011;12804;51.176;4.452;2023-04-01T00:39:17;9.88;;;4.70;;
24685;SDS011;12804;51.176;4.452;2023-04-01T00:41:44;12.45;;;5.47;;
24685;SDS011;12804;51.176;4.452;2023-04-01T00:44:21;8.52;;;4.82;;
24685;SDS011;12804;51.176;4.452;2023-04-01T00:46:49;9.38;;;5.38;;
24685;SDS011;12804;51.176;4.452;2023-04-01T00:49:15;11.10;;;5.38;;
24685;SDS011;12804;51.176;4.452;2023-04-01T00:51:45;10.10;;;5.82;;
24685;SDS011;12804;51.176;4.452;2023-04-01T00:54:13;9.93;;;5.90;;
24685;SDS011;12804;51.176;4.452;2023-04-01T00:56:43;9.43;;;6.47;;
24685;SDS011;12804;51.176;4.452;2023-04-01T00:59:16;13.40;;;7.07;;
24685;SDS011;12804;51.176;4.452;2023-04-01T01:01:47;12.40;;;7.63;;
24685;SDS011;12804;51.176;4.452;2023-04-01T01:04:23;11.10;;;7.25;;
24685;SDS011;12804;51.176;4.452;2023-04-01T01:07:12;12.82;;;7.47;;
24685;SDS011;12804;51.176;4.452;2023-04-01T01:16:04;16.80;;;8.85;;
24685;SDS011;12804;51.176;4.452;2023-04-01T01:18:40;14.88;;;8.77;;
24685;SDS011;12804;51.176;4.452;2023-04-01T01:23:57;15.32;;;9.00;;
24685;SDS011;12804;51.176;4.452;2023-04-01T01:35:43;17.52;;;10.48;;
24685;SDS011;12804;51.176;4.452;2023-04-01T01:38:10;18.05;;;10.52;;
24685;SDS011;12804;51.176;4.452;2023-04-01T01:43:11;15.07;;;9.18;;
24685;SDS011;12804;51.176;4.452;2023-04-01T01:45:40;9.98;;;6.55;;
24685;SDS011;12804;51.176;4.452;2023-04-01T01:48:11;8.32;;;5.32;;
24685;SDS011;12804;51.176;4.452;2023-04-01T01:50:37;12.40;;;5.47;;
24685;SDS011;12804;51.176;4.452;2023-04-01T01:53:06;11.10;;;5.32;;
24685;SDS011;12804;51.176;4.452;2023-04-01T01:55:35;13.77;;;5.70;;
24685;SDS011;12804;51.176;4.452;2023-04-01T02:00:41;10.38;;;6.10;;
24685;SDS011;12804;51.176;4.452;2023-04-01T02:03:12;12.15;;;6.43;;
24685;SDS011;12804;51.176;4.452;2023-04-01T02:05:40;14.63;;;7.43;;
24685;SDS011;12804;51.176;4.452;2023-04-01T02:08:10;10.30;;;7.22;;
24685;SDS011;12804;51.176;4.452;2023-04-01T02:10:47;13.77;;;8.65;;
24685;SDS011;12804;51.176;4.452;2023-04-01T02:13:31;13.02;;;9.70;;
24685;SDS011;12804;51.176;4.452;2023-04-01T02:16:02;12.48;;;8.90;;
24685;SDS011;12804;51.176;4.452;2023-04-01T02:18:35;12.05;;;9.32;;
24685;SDS011;12804;51.176;4.452;2023-04-01T02:21:04;10.20;;;8.00;;
24685;SDS011;12804;51.176;4.452;2023-04-01T02:23:33;9.38;;;8.23;;
24685;SDS011;12804;51.176;4.452;2023-04-01T02:26:01;10.88;;;8.65;;
24685;SDS011;12804;51.176;4.452;2023-04-01T02:28:29;11.18;;;8.75;;
24685;SDS011;12804;51.176;4.452;2023-04-01T02:30:58;9.15;;;8.18;;
24685;SDS011;12804;51.176;4.452;2023-04-01T02:33:27;11.43;;;8.10;;
24685;SDS011;12804;51.176;4.452;2023-04-01T02:35:55;10.07;;;7.63;;
24685;SDS011;12804;51.176;4.452;2023-04-01T02:38:21;11.05;;;8.07;;
24685;SDS011;12804;51.176;4.452;2023-04-01T02:40:49;12.88;;;8.23;;
24685;SDS011;12804;51.176;4.452;2023-04-01T02:43:17;9.85;;;8.10;;
24685;SDS011;12804;51.176;4.452;2023-04-01T02:45:44;10.50;;;7.53;;
24685;SDS011;12804;51.176;4.452;2023-04-01T02:48:10;10.98;;;7.30;;
24685;SDS011;12804;51.176;4.452;2023-04-01T02:50:37;8.63;;;6.47;;
24685;SDS011;12804;51.176;4.452;2023-04-01T02:53:03;8.75;;;6.57;;
24685;SDS011;12804;51.176;4.452;2023-04-01T02:55:31;7.82;;;6.70;;
24685;SDS011;12804;51.176;4.452;2023-04-01T02:57:58;10.35;;;7.20;;
24685;SDS011;12804;51.176;4.452;2023-04-01T03:00:24;7.90;;;5.63;;
24685;SDS011;12804;51.176;4.452;2023-04-01T03:02:50;6.80;;;5.43;;
24685;SDS011;12804;51.176;4.452;2023-04-01T03:05:17;6.85;;;5.28;;
24685;SDS011;12804;51.176;4.452;2023-04-01T03:07:43;6.32;;;4.70;;
24685;SDS011;12804;51.176;4.452;2023-04-01T03:10:09;5.68;;;4.10;;
24685;SDS011;12804;51.176;4.452;2023-04-01T03:12:35;6.63;;;4.47;;
24685;SDS011;12804;51.176;4.452;2023-04-01T03:15:01;6.43;;;4.72;;
24685;SDS011;12804;51.176;4.452;2023-04-01T03:17:27;6.10;;;5.00;;
24685;SDS011;12804;51.176;4.452;2023-04-01T03:19:53;6.35;;;4.70;;
24685;SDS011;12804;51.176;4.452;2023-04-01T03:22:19;7.85;;;5.47;;
24685;SDS011;12804;51.176;4.452;2023-04-01T03:24:49;12.48;;;6.78;;
24685;SDS011;12804;51.176;4.452;2023-04-01T03:27:15;7.32;;;5.50;;
24685;SDS011;12804;51.176;4.452;2023-04-01T03:29:41;7.30;;;5.97;;
24685;SDS011;12804;51.176;4.452;2023-04-01T03:32:07;6.88;;;5.25;;
24685;SDS011;12804;51.176;4.452;2023-04-01T03:34:33;8.43;;;6.05;;
24685;SDS011;12804;51.176;4.452;2023-04-01T03:36:59;9.32;;;6.05;;
24685;SDS011;12804;51.176;4.452;2023-04-01T03:39:25;11.32;;;6.72;;
24685;SDS011;12804;51.176;4.452;2023-04-01T03:41:51;9.25;;;6.43;;
24685;SDS011;12804;51.176;4.452;2023-04-01T03:44:17;11.27;;;6.43;;
24685;SDS011;12804;51.176;4.452;2023-04-01T03:46:46;11.25;;;6.43;;
24685;SDS011;12804;51.176;4.452;2023-04-01T03:49:12;9.20;;;6.65;;
24685;SDS011;12804;51.176;4.452;2023-04-01T03:51:38;11.27;;;6.72;;
24685;SDS011;12804;51.176;4.452;2023-04-01T03:54:09;9.95;;;6.72;;
24685;SDS011;12804;51.176;4.452;2023-04-01T03:56:36;10.65;;;6.90;;
24685;SDS011;12804;51.176;4.452;2023-04-01T03:59:03;11.27;;;6.88;;
24685;SDS011;12804;51.176;4.452;2023-04-01T04:01:31;10.52;;;6.38;;
24685;SDS011;12804;51.176;4.452;2023-04-01T04:03:57;11.57;;;6.97;;
24685;SDS011;12804;51.176;4.452;2023-04-01T04:06:23;12.15;;;7.60;;
24685;SDS011;12804;51.176;4.452;2023-04-01T04:08:50;14.20;;;7.78;;
24685;SDS011;12804;51.176;4.452;2023-04-01T04:11:16;13.20;;;8.02;;
24685;SDS011;12804;51.176;4.452;2023-04-01T04:13:43;14.38;;;8.75;;
24685;SDS011;12804;51.176;4.452;2023-04-01T04:16:09;13.40;;;8.80;;
24685;SDS011;12804;51.176;4.452;2023-04-01T04:18:40;15.23;;;9.30;;
24685;SDS011;12804;51.176;4.452;2023-04-01T04:21:06;19.08;;;9.45;;
24685;SDS011;12804;51.176;4.452;2023-04-01T04:23:32;14.13;;;8.18;;
24685;SDS011;12804;51.176;4.452;2023-04-01T04:26:00;12.68;;;7.75;;
24685;SDS011;12804;51.176;4.452;2023-04-01T04:28:28;14.73;;;7.53;;
24685;SDS011;12804;51.176;4.452;2023-04-01T04:30:56;11.13;;;6.68;;
24685;SDS011;12804;51.176;4.452;2023-04-01T04:33:22;14.15;;;8.20;;
24685;SDS011;12804;51.176;4.452;2023-04-01T04:35:49;13.60;;;7.82;;
24685;SDS011;12804;51.176;4.452;2023-04-01T04:38:16;15.93;;;6.90;;
24685;SDS011;12804;51.176;4.452;2023-04-01T04:40:42;11.35;;;6.88;;
24685;SDS011;12804;51.176;4.452;2023-04-01T04:43:12;13.30;;;7.88;;
24685;SDS011;12804;51.176;4.452;2023-04-01T04:45:40;9.57;;;6.65;;
24685;SDS011;12804;51.176;4.452;2023-04-01T04:48:07;12.05;;;6.80;;
24685;SDS011;12804;51.176;4.452;2023-04-01T04:50:41;13.73;;;7.32;;
24685;SDS011;12804;51.176;4.452;2023-04-01T04:53:11;10.70;;;7.32;;
24685;SDS011;12804;51.176;4.452;2023-04-01T04:55:42;14.80;;;8.68;;
24685;SDS011;12804;51.176;4.452;2023-04-01T04:58:30;16.42;;;10.07;;
24685;SDS011;12804;51.176;4.452;2023-04-01T05:00:56;14.77;;;9.18;;
24685;SDS011;12804;51.176;4.452;2023-04-01T05:03:26;13.65;;;9.75;;
24685;SDS011;12804;51.176;4.452;2023-04-01T05:05:53;11.18;;;7.97;;
24685;SDS011;12804;51.176;4.452;2023-04-01T05:08:19;10.88;;;8.10;;
24685;SDS011;12804;51.176;4.452;2023-04-01T05:10:46;11.48;;;7.68;;
24685;SDS011;12804;51.176;4.452;2023-04-01T05:13:12;10.70;;;7.80;;
24685;SDS011;12804;51.176;4.452;2023-04-01T05:15:38;8.50;;;6.70;;
24685;SDS011;12804;51.176;4.452;2023-04-01T05:18:05;10.93;;;7.60;;
24685;SDS011;12804;51.176;4.452;2023-04-01T05:20:31;13.75;;;8.77;;
24685;SDS011;12804;51.176;4.452;2023-04-01T05:22:57;13.82;;;9.25;;
24685;SDS011;12804;51.176;4.452;2023-04-01T05:25:24;14.00;;;10.15;;
24685;SDS011;12804;51.176;4.452;2023-04-01T05:27:50;13.93;;;9.82;;
24685;SDS011;12804;51.176;4.452;2023-04-01T05:30:16;12.57;;;9.02;;
24685;SDS011;12804;51.176;4.452;2023-04-01T05:33:00;12.65;;;8.77;;
24685;SDS011;12804;51.176;4.452;2023-04-01T05:35:26;13.23;;;9.90;;
24685;SDS011;12804;51.176;4.452;2023-04-01T05:37:52;14.02;;;10.38;;
24685;SDS011;12804;51.176;4.452;2023-04-01T05:40:19;16.35;;;11.88;;
24685;SDS011;12804;51.176;4.452;2023-04-01T05:42:45;15.93;;;11.80;;
24685;SDS011;12804;51.176;4.452;2023-04-01T05:45:11;16.55;;;11.60;;
24685;SDS011;12804;51.176;4.452;2023-04-01T05:47:59;15.13;;;11.20;;
24685;SDS011;12804;51.176;4.452;2023-04-01T05:50:27;17.48;;;11.40;;
24685;SDS011;12804;51.176;4.452;2023-04-01T05:52:54;16.98;;;11.30;;
24685;SDS011;12804;51.176;4.452;2023-04-01T05:55:21;17.67;;;11.15;;
24685;SDS011;12804;51.176;4.452;2023-04-01T05:57:48;15.27;;;10.82;;
24685;SDS011;12804;51.176;4.452;2023-04-01T06:00:15;12.32;;;9.50;;
24685;SDS011;12804;51.176;4.452;2023-04-01T06:02:42;13.15;;;9.98;;
24685;SDS011;12804;51.176;4.452;2023-04-01T06:05:18;13.23;;;9.50;;
24685;SDS011;12804;51.176;4.452;2023-04-01T06:07:46;15.48;;;12.20;;
24685;SDS011;12804;51.176;4.452;2023-04-01T06:10:14;13.60;;;10.90;;
24685;SDS011;12804;51.176;4.452;2023-04-01T06:12:53;15.45;;;10.70;;
24685;SDS011;12804;51.176;4.452;2023-04-01T06:18:44;14.60;;;11.27;;
24685;SDS011;12804;51.176;4.452;2023-04-01T06:24:19;13.63;;;9.13;;
24685;SDS011;12804;51.176;4.452;2023-04-01T06:29:44;9.98;;;8.45;;
24685;SDS011;12804;51.176;4.452;2023-04-01T06:38:24;15.05;;;10.35;;
24685;SDS011;12804;51.176;4.452;2023-04-01T06:43:57;12.93;;;11.30;;
24685;SDS011;12804;51.176;4.452;2023-04-01T06:53:30;15.02;;;8.90;;
24685;SDS011;12804;51.176;4.452;2023-04-01T06:56:30;11.40;;;8.50;;
24685;SDS011;12804;51.176;4.452;2023-04-01T06:59:15;7.63;;;6.82;;
24685;SDS011;12804;51.176;4.452;2023-04-01T07:01:55;8.00;;;7.03;;
24685;SDS011;12804;51.176;4.452;2023-04-01T07:04:25;9.63;;;7.28;;
24685;SDS011;12804;51.176;4.452;2023-04-01T07:07:21;11.45;;;7.22;;
24685;SDS011;12804;51.176;4.452;2023-04-01T07:09:53;9.50;;;6.82;;
24685;SDS011;12804;51.176;4.452;2023-04-01T07:15:26;6.80;;;5.88;;
24685;SDS011;12804;51.176;4.452;2023-04-01T07:17:58;8.90;;;7.13;;
24685;SDS011;12804;51.176;4.452;2023-04-01T07:20:31;8.13;;;7.32;;
24685;SDS011;12804;51.176;4.452;2023-04-01T07:23:02;8.40;;;6.75;;
24685;SDS011;12804;51.176;4.452;2023-04-01T07:26:06;7.18;;;5.93;;
24685;SDS011;12804;51.176;4.452;2023-04-01T07:29:05;8.15;;;6.53;;
24685;SDS011;12804;51.176;4.452;2023-04-01T07:31:52;7.40;;;5.82;;
24685;SDS011;12804;51.176;4.452;2023-04-01T07:37:11;6.43;;;5.82;;
24685;SDS011;12804;51.176;4.452;2023-04-01T07:39:45;5.72;;;4.72;;
24685;SDS011;12804;51.176;4.452;2023-04-01T07:45:16;4.55;;;4.03;;
24685;SDS011;12804;51.176;4.452;2023-04-01T07:48:11;4.90;;;4.40;;
24685;SDS011;12804;51.176;4.452;2023-04-01T07:56:51;7.97;;;5.85;;
24685;SDS011;12804;51.176;4.452;2023-04-01T08:05:22;7.32;;;5.72;;
24685;SDS011;12804;51.176;4.452;2023-04-01T08:11:33;5.38;;;4.78;;
24685;SDS011;12804;51.176;4.452;2023-04-01T08:14:48;5.38;;;4.45;;
24685;SDS011;12804;51.176;4.452;2023-04-01T08:20:45;5.22;;;4.55;;
24685;SDS011;12804;51.176;4.452;2023-04-01T08:23:26;5.53;;;4.50;;
24685;SDS011;12804;51.176;4.452;2023-04-01T08:26:20;6.50;;;4.68;;
24685;SDS011;12804;51.176;4.452;2023-04-01T08:29:48;5.75;;;4.90;;
24685;SDS011;12804;51.176;4.452;2023-04-01T08:32:16;5.75;;;4.32;;
24685;SDS011;12804;51.176;4.452;2023-04-01T08:34:50;5.82;;;5.03;;
24685;SDS011;12804;51.176;4.452;2023-04-01T08:37:32;5.85;;;5.10;;
24685;SDS011;12804;51.176;4.452;2023-04-01T08:40:12;4.95;;;4.45;;
24685;SDS011;12804;51.176;4.452;2023-04-01T08:48:45;4.80;;;4.35;;
24685;SDS011;12804;51.176;4.452;2023-04-01T08:56:57;4.93;;;4.53;;
24685;SDS011;12804;51.176;4.452;2023-04-01T09:34:41;2.85;;;2.35;;
24685;SDS011;12804;51.176;4.452;2023-04-01T09:39:54;2.53;;;2.00;;
24685;SDS011;12804;51.176;4.452;2023-04-01T09:51:25;2.50;;;2.30;;
24685;SDS011;12804;51.176;4.452;2023-04-01T10:14:28;3.80;;;2.10;;
24685;SDS011;12804;51.176;4.452;2023-04-01T10:20:22;5.18;;;2.70;;
24685;SDS011;12804;51.176;4.452;2023-04-01T10:36:46;4.80;;;4.00;;
24685;SDS011;12804;51.176;4.452;2023-04-01T11:25:25;4.68;;;3.33;;
24685;SDS011;12804;51.176;4.452;2023-04-01T11:28:34;4.68;;;3.17;;
24685;SDS011;12804;51.176;4.452;2023-04-01T11:33:46;6.25;;;3.22;;
24685;SDS011;12804;51.176;4.452;2023-04-01T11:46:11;3.50;;;2.47;;
24685;SDS011;12804;51.176;4.452;2023-04-01T11:48:56;3.67;;;2.55;;
24685;SDS011;12804;51.176;4.452;2023-04-01T12:08:29;3.53;;;1.85;;
24685;SDS011;12804;51.176;4.452;2023-04-01T12:11:15;3.78;;;2.15;;
24685;SDS011;12804;51.176;4.452;2023-04-01T12:19:18;3.83;;;3.47;;
24685;SDS011;12804;51.176;4.452;2023-04-01T12:41:08;3.25;;;2.38;;
24685;SDS011;12804;51.176;4.452;2023-04-01T12:59:49;3.42;;;3.10;;
24685;SDS011;12804;51.176;4.452;2023-04-01T13:05:32;3.47;;;3.00;;
24685;SDS011;12804;51.176;4.452;2023-04-01T13:17:53;4.78;;;3.90;;
24685;SDS011;12804;51.176;4.452;2023-04-01T13:26:41;5.35;;;4.93;;
24685;SDS011;12804;51.176;4.452;2023-04-01T13:29:35;8.30;;;5.93;;
24685;SDS011;12804;51.176;4.452;2023-04-01T13:32:08;7.15;;;6.40;;
24685;SDS011;12804;51.176;4.452;2023-04-01T13:42:45;5.40;;;4.90;;
24685;SDS011;12804;51.176;4.452;2023-04-01T13:45:19;4.60;;;4.20;;
24685;SDS011;12804;51.176;4.452;2023-04-01T13:56:15;4.68;;;3.50;;
24685;SDS011;12804;51.176;4.452;2023-04-01T14:01:35;3.42;;;3.10;;
24685;SDS011;12804;51.176;4.452;2023-04-01T14:04:33;3.85;;;3.03;;
24685;SDS011;12804;51.176;4.452;2023-04-01T14:07:30;4.97;;;3.00;;
24685;SDS011;12804;51.176;4.452;2023-04-01T14:18:33;2.97;;;2.28;;
24685;SDS011;12804;51.176;4.452;2023-04-01T14:30:04;2.50;;;2.30;;
24685;SDS011;12804;51.176;4.452;2023-04-01T14:47:42;6.40;;;3.13;;
24685;SDS011;12804;51.176;4.452;2023-04-01T14:50:45;3.75;;;3.00;;
24685;SDS011;12804;51.176;4.452;2023-04-01T14:55:51;2.40;;;2.20;;
24685;SDS011;12804;51.176;4.452;2023-04-01T14:58:21;3.97;;;2.05;;
24685;SDS011;12804;51.176;4.452;2023-04-01T15:00:55;2.47;;;2.20;;
24685;SDS011;12804;51.176;4.452;2023-04-01T15:03:25;4.78;;;2.50;;
24685;SDS011;12804;51.176;4.452;2023-04-01T15:11:47;4.35;;;2.85;;
24685;SDS011;12804;51.176;4.452;2023-04-01T15:20:50;2.13;;;1.80;;
24685;SDS011;12804;51.176;4.452;2023-04-01T15:23:27;2.67;;;1.98;;
24685;SDS011;12804;51.176;4.452;2023-04-01T15:29:23;3.53;;;1.98;;
24685;SDS011;12804;51.176;4.452;2023-04-01T15:35:10;3.58;;;2.50;;
24685;SDS011;12804;51.176;4.452;2023-04-01T15:38:36;5.40;;;3.20;;
24685;SDS011;12804;51.176;4.452;2023-04-01T15:41:16;3.15;;;2.85;;
24685;SDS011;12804;51.176;4.452;2023-04-01T15:43:50;4.10;;;2.67;;
24685;SDS011;12804;51.176;4.452;2023-04-01T15:46:25;3.00;;;2.03;;
24685;SDS011;12804;51.176;4.452;2023-04-01T15:51:44;3.08;;;1.90;;
24685;SDS011;12804;51.176;4.452;2023-04-01T15:59:20;1.83;;;1.33;;
24685;SDS011;12804;51.176;4.452;2023-04-01T16:13:12;4.53;;;2.97;;
24685;SDS011;12804;51.176;4.452;2023-04-01T16:18:45;4.22;;;3.47;;
24685;SDS011;12804;51.176;4.452;2023-04-01T16:23:56;4.50;;;4.10;;
24685;SDS011;12804;51.176;4.452;2023-04-01T16:26:36;5.88;;;4.30;;
24685;SDS011;12804;51.176;4.452;2023-04-01T16:29:12;4.65;;;4.13;;
24685;SDS011;12804;51.176;4.452;2023-04-01T16:37:17;4.55;;;4.15;;
24685;SDS011;12804;51.176;4.452;2023-04-01T16:42:34;7.35;;;4.40;;
24685;SDS011;12804;51.176;4.452;2023-04-01T16:48:01;5.15;;;4.53;;
24685;SDS011;12804;51.176;4.452;2023-04-01T16:50:48;5.35;;;4.47;;
24685;SDS011;12804;51.176;4.452;2023-04-01T16:53:31;5.20;;;4.60;;
24685;SDS011;12804;51.176;4.452;2023-04-01T16:56:23;6.68;;;4.60;;
24685;SDS011;12804;51.176;4.452;2023-04-01T17:04:25;5.88;;;4.65;;
24685;SDS011;12804;51.176;4.452;2023-04-01T17:12:20;7.07;;;4.82;;
24685;SDS011;12804;51.176;4.452;2023-04-01T17:18:01;8.18;;;3.80;;
24685;SDS011;12804;51.176;4.452;2023-04-01T17:26:02;4.65;;;2.65;;
24685;SDS011;12804;51.176;4.452;2023-04-01T17:34:26;3.25;;;2.20;;
24685;SDS011;12804;51.176;4.452;2023-04-01T17:37:19;3.22;;;2.53;;
24685;SDS011;12804;51.176;4.452;2023-04-01T17:40:04;3.92;;;2.95;;
24685;SDS011;12804;51.176;4.452;2023-04-01T17:45:10;5.73;;;3.73;;
24685;SDS011;12804;51.176;4.452;2023-04-01T17:50:47;11.13;;;5.00;;
24685;SDS011;12804;51.176;4.452;2023-04-01T17:53:44;8.75;;;5.65;;
24685;SDS011;12804;51.176;4.452;2023-04-01T17:59:28;13.02;;;7.25;;
24685;SDS011;12804;51.176;4.452;2023-04-01T18:13:30;17.92;;;10.10;;
24685;SDS011;12804;51.176;4.452;2023-04-01T18:18:54;21.83;;;10.23;;
24685;SDS011;12804;51.176;4.452;2023-04-01T18:21:52;24.00;;;11.23;;
24685;SDS011;12804;51.176;4.452;2023-04-01T18:24:24;25.38;;;11.68;;
24685;SDS011;12804;51.176;4.452;2023-04-01T18:35:09;25.55;;;11.73;;
24685;SDS011;12804;51.176;4.452;2023-04-01T18:41:07;35.55;;;12.20;;
24685;SDS011;12804;51.176;4.452;2023-04-01T18:49:21;25.02;;;10.85;;
24685;SDS011;12804;51.176;4.452;2023-04-01T18:54:31;23.13;;;10.88;;
24685;SDS011;12804;51.176;4.452;2023-04-01T18:57:23;20.05;;;10.25;;
24685;SDS011;12804;51.176;4.452;2023-04-01T18:59:51;25.65;;;11.13;;
24685;SDS011;12804;51.176;4.452;2023-04-01T19:02:30;24.40;;;12.00;;
24685;SDS011;12804;51.176;4.452;2023-04-01T19:05:19;28.00;;;15.30;;
24685;SDS011;12804;51.176;4.452;2023-04-01T19:10:51;31.90;;;16.13;;
24685;SDS011;12804;51.176;4.452;2023-04-01T19:27:25;37.53;;;17.95;;
24685;SDS011;12804;51.176;4.452;2023-04-01T19:32:58;36.40;;;19.10;;
24685;SDS011;12804;51.176;4.452;2023-04-01T19:35:54;36.78;;;18.92;;
24685;SDS011;12804;51.176;4.452;2023-04-01T19:41:40;32.38;;;17.83;;
24685;SDS011;12804;51.176;4.452;2023-04-01T19:52:52;34.55;;;18.83;;
24685;SDS011;12804;51.176;4.452;2023-04-01T19:55:26;30.30;;;17.98;;
24685;SDS011;12804;51.176;4.452;2023-04-01T20:00:52;31.10;;;17.02;;
24685;SDS011;12804;51.176;4.452;2023-04-01T20:03:37;29.60;;;17.98;;
24685;SDS011;12804;51.176;4.452;2023-04-01T20:12:00;25.00;;;16.20;;
24685;SDS011;12804;51.176;4.452;2023-04-01T20:15:18;25.38;;;16.70;;
24685;SDS011;12804;51.176;4.452;2023-04-01T20:17:45;24.92;;;15.88;;
24685;SDS011;12804;51.176;4.452;2023-04-01T20:41:56;11.82;;;9.50;;
24685;SDS011;12804;51.176;4.452;2023-04-01T20:45:04;11.80;;;9.13;;
24685;SDS011;12804;51.176;4.452;2023-04-01T20:47:59;10.45;;;8.82;;
24685;SDS011;12804;51.176;4.452;2023-04-01T20:53:36;11.32;;;8.95;;
24685;SDS011;12804;51.176;4.452;2023-04-01T20:56:30;11.50;;;9.30;;
24685;SDS011;12804;51.176;4.452;2023-04-01T20:59:16;11.27;;;9.27;;
24685;SDS011;12804;51.176;4.452;2023-04-01T21:21:37;10.38;;;9.18;;
24685;SDS011;12804;51.176;4.452;2023-04-01T21:35:53;11.60;;;10.35;;
24685;SDS011;12804;51.176;4.452;2023-04-01T21:49:01;14.30;;;11.93;;
24685;SDS011;12804;51.176;4.452;2023-04-01T22:04:11;17.60;;;14.38;;
24685;SDS011;12804;51.176;4.452;2023-04-01T22:07:02;16.85;;;14.20;;
24685;SDS011;12804;51.176;4.452;2023-04-01T22:17:51;15.82;;;13.32;;
24685;SDS011;12804;51.176;4.452;2023-04-01T22:25:40;16.75;;;13.57;;
24685;SDS011;12804;51.176;4.452;2023-04-01T22:28:22;16.30;;;13.65;;
24685;SDS011;12804;51.176;4.452;2023-04-01T22:31:03;17.52;;;14.10;;
24685;SDS011;12804;51.176;4.452;2023-04-01T22:38:49;16.60;;;13.52;;
24685;SDS011;12804;51.176;4.452;2023-04-01T22:44:05;17.58;;;14.15;;
24685;SDS011;12804;51.176;4.452;2023-04-01T22:52:43;20.88;;;16.63;;
24685;SDS011;12804;51.176;4.452;2023-04-01T23:05:54;22.10;;;16.85;;
24685;SDS011;12804;51.176;4.452;2023-04-01T23:09:26;22.33;;;17.30;;
24685;SDS011;12804;51.176;4.452;2023-04-01T23:14:30;23.33;;;17.13;;
24685;SDS011;12804;51.176;4.452;2023-04-01T23:17:16;23.35;;;16.65;;
24685;SDS011;12804;51.176;4.452;2023-04-01T23:26:21;21.70;;;15.93;;
24685;SDS011;12804;51.176;4.452;2023-04-01T23:28:47;22.23;;;16.15;;
24685;SDS011;12804;51.176;4.452;2023-04-01T23:34:00;22.63;;;16.70;;
24685;SDS011;12804;51.176;4.452;2023-04-01T23:36:29;21.17;;;15.65;;
24685;SDS011;12804;51.176;4.452;2023-04-01T23:38:56;18.17;;;14.77;;
24685;SDS011;12804;51.176;4.452;2023-04-01T23:41:27;17.73;;;14.10;;
24685;SDS011;12804;51.176;4.452;2023-04-01T23:44:02;19.23;;;13.98;;
24685;SDS011;12804;51.176;4.452;2023-04-01T23:46:33;19.17;;;13.02;;
24685;SDS011;12804;51.176;4.452;2023-04-01T23:49:00;18.05;;;13.68;;
24685;SDS011;12804;51.176;4.452;2023-04-01T23:51:29;19.02;;;14.10;;
24685;SDS011;12804;51.176;4.452;2023-04-01T23:54:10;17.70;;;13.75;;
24685;SDS011;12804;51.176;4.452;2023-04-01T23:56:44;18.67;;;14.32;;
24685;SDS011;12804;51.176;4.452;2023-04-01T23:59:17;17.15;;;13.98;;
